Time;durP1;ratioP1;P1;durP2;ratioP2;P2;SDS_P1;SDS_P2;PMS_P1;PMS_P2;Temp;Humidity;BMP_temperature;BMP_pressure;BME280_temperature;BME280_humidity;BME280_pressure;Samples;Min_cycle;Max_cycle;Signal;HPM_P1;HPM_P2
2023/06/19 00:01:18;;;;;;;10.75;7.47;;;24.20;87.60;;;;;;4937252;29;20032;-77
2023/06/19 00:03:44;;;;;;;12.48;7.63;;;24.10;87.50;;;;;;4936871;29;20028;-78
2023/06/19 00:06:12;;;;;;;13.40;7.32;;;24.10;87.50;;;;;;4950380;29;20070;-77
2023/06/19 00:08:38;;;;;;;13.70;7.57;;;24.10;87.60;;;;;;4955507;29;20837;-77
2023/06/19 00:11:03;;;;;;;16.33;7.25;;;24.10;87.90;;;;;;4955644;29;20353;-76
2023/06/19 00:13:29;;;;;;;13.88;7.00;;;24.00;88.20;;;;;;4938340;29;20034;-76
2023/06/19 00:15:55;;;;;;;13.30;7.72;;;24.00;88.50;;;;;;4955499;29;20035;-76
2023/06/19 00:18:20;;;;;;;15.13;7.50;;;24.00;88.80;;;;;;4955626;29;20030;-77
2023/06/19 00:20:46;;;;;;;12.77;7.68;;;23.90;89.10;;;;;;4955573;29;20115;-77
2023/06/19 00:23:13;;;;;;;13.15;8.15;;;23.90;89.50;;;;;;4955308;29;20027;-76
2023/06/19 00:25:40;;;;;;;10.93;6.85;;;23.80;90.00;;;;;;4955602;29;20042;-78
2023/06/19 00:28:13;;;;;;;15.05;8.13;;;23.70;90.50;;;;;;4955329;29;20476;-77
2023/06/19 00:30:39;;;;;;;11.50;7.07;;;23.70;90.90;;;;;;4955281;29;20031;-77
2023/06/19 00:33:05;;;;;;;13.45;7.43;;;23.50;91.50;;;;;;4954103;29;20095;-77
2023/06/19 00:35:31;;;;;;;13.38;8.35;;;23.50;92.30;;;;;;4954843;29;20058;-79
2023/06/19 00:38:00;;;;;;;14.40;7.63;;;23.40;92.40;;;;;;4955567;29;20066;-77
2023/06/19 00:40:31;;;;;;;13.75;6.50;;;23.30;93.30;;;;;;4951614;29;20023;-76
2023/06/19 00:42:57;;;;;;;13.10;7.53;;;23.20;94.00;;;;;;4936577;29;20480;-78
2023/06/19 00:45:24;;;;;;;11.43;5.90;;;23.10;94.50;;;;;;4936557;29;20091;-78
2023/06/19 00:47:50;;;;;;;7.72;4.65;;;23.00;96.00;;;;;;4936024;29;20433;-76
2023/06/19 00:50:16;;;;;;;5.68;4.10;;;22.90;97.30;;;;;;4935912;29;20039;-78
2023/06/19 00:52:43;;;;;;;7.25;3.35;;;22.80;98.30;;;;;;4936454;29;20036;-77
2023/06/19 00:55:10;;;;;;;4.25;2.28;;;22.70;99.10;;;;;;4935682;29;20033;-77
2023/06/19 00:57:36;;;;;;;6.15;1.92;;;22.60;99.90;;;;;;4953834;29;20423;-77
2023/06/19 01:00:07;;;;;;;4.68;2.28;;;22.40;99.90;;;;;;4954715;29;20126;-77
2023/06/19 01:02:32;;;;;;;6.05;2.00;;;22.30;99.90;;;;;;4955305;29;20034;-77
2023/06/19 01:04:58;;;;;;;3.35;1.92;;;22.20;99.90;;;;;;4954871;29;20384;-77
2023/06/19 01:07:56;;;;;;;3.30;1.80;;;22.10;99.90;;;;;;4955056;29;20061;-77
2023/06/19 01:10:27;;;;;;;4.88;1.48;;;22.00;99.90;;;;;;4955013;29;20041;-78
2023/06/19 01:13:21;;;;;;;3.20;1.65;;;21.90;99.90;;;;;;4954828;29;20039;-78
2023/06/19 01:15:48;;;;;;;3.83;2.28;;;21.70;99.90;;;;;;4954874;29;20062;-78
2023/06/19 01:18:14;;;;;;;5.35;2.72;;;21.60;99.90;;;;;;4954567;29;20019;-77
2023/06/19 01:20:42;;;;;;;4.50;2.67;;;21.50;99.90;;;;;;4954400;29;20031;-78
2023/06/19 01:23:09;;;;;;;11.75;4.45;;;21.30;99.90;;;;;;4954449;29;20035;-78
2023/06/19 01:25:35;;;;;;;5.95;3.42;;;21.20;99.90;;;;;;4954135;29;20125;-78
2023/06/19 01:28:04;;;;;;;10.88;4.78;;;21.10;99.90;;;;;;4954363;29;20159;-77
2023/06/19 01:30:30;;;;;;;8.82;4.70;;;21.10;99.90;;;;;;4954625;29;20038;-78
2023/06/19 01:33:27;;;;;;;7.60;5.00;;;21.00;99.90;;;;;;4954366;29;20368;-77
2023/06/19 01:35:55;;;;;;;8.45;4.72;;;21.00;99.90;;;;;;4954446;28;20110;-79
2023/06/19 01:38:25;;;;;;;7.20;4.00;;;21.00;99.90;;;;;;4954386;29;20031;-77
2023/06/19 01:40:52;;;;;;;7.13;4.40;;;20.90;99.90;;;;;;4951778;28;20110;-77
2023/06/19 01:43:19;;;;;;;7.15;4.72;;;20.90;99.90;;;;;;4953807;29;20047;-77
2023/06/19 01:45:44;;;;;;;10.80;5.35;;;20.90;99.90;;;;;;4953886;29;20494;-78
2023/06/19 01:48:10;;;;;;;6.45;4.20;;;20.90;99.90;;;;;;4954058;29;20051;-78
2023/06/19 01:50:36;;;;;;;8.23;5.00;;;20.90;99.90;;;;;;4953179;29;20098;-77
2023/06/19 01:53:02;;;;;;;8.80;4.85;;;20.90;99.90;;;;;;4954106;28;20027;-78
2023/06/19 01:55:27;;;;;;;7.10;4.28;;;20.90;99.90;;;;;;4953972;29;20031;-79
2023/06/19 01:57:53;;;;;;;7.28;4.22;;;20.90;99.90;;;;;;4954026;29;20019;-78
2023/06/19 02:00:19;;;;;;;7.95;4.18;;;20.90;99.90;;;;;;4953576;29;20038;-77
2023/06/19 02:02:47;;;;;;;6.85;3.80;;;20.90;99.90;;;;;;4953959;29;20023;-78
2023/06/19 02:05:13;;;;;;;8.82;5.57;;;20.90;99.90;;;;;;4935725;28;20019;-77
2023/06/19 02:07:39;;;;;;;9.52;5.40;;;20.90;99.90;;;;;;4935619;29;20368;-78
2023/06/19 02:10:05;;;;;;;12.23;7.15;;;20.90;99.90;;;;;;4950649;28;20033;-78
2023/06/19 02:12:31;;;;;;;11.80;6.30;;;20.90;99.90;;;;;;4953413;29;20054;-77
2023/06/19 02:14:56;;;;;;;12.80;8.20;;;20.80;99.90;;;;;;4953761;29;20448;-78
2023/06/19 02:17:22;;;;;;;14.48;8.73;;;20.80;99.90;;;;;;4953514;29;20027;-77
2023/06/19 02:19:47;;;;;;;15.52;9.30;;;20.80;99.90;;;;;;4953548;29;20055;-77
2023/06/19 02:22:13;;;;;;;16.13;8.85;;;20.80;99.90;;;;;;4953379;29;20030;-77
2023/06/19 02:24:39;;;;;;;15.98;10.52;;;20.80;99.90;;;;;;4953204;29;20066;-78
2023/06/19 02:27:05;;;;;;;16.35;9.48;;;20.80;99.90;;;;;;4950621;29;20040;-78
2023/06/19 02:29:33;;;;;;;19.63;11.43;;;20.70;99.90;;;;;;4936085;29;20027;-77
2023/06/19 02:31:59;;;;;;;19.17;11.50;;;20.60;99.90;;;;;;4935987;29;20356;-77
2023/06/19 02:34:25;;;;;;;21.17;13.80;;;20.60;99.90;;;;;;4950496;29;20049;-77
2023/06/19 02:36:51;;;;;;;20.02;13.82;;;20.60;99.90;;;;;;4953464;29;20030;-78
2023/06/19 02:39:20;;;;;;;22.98;16.27;;;20.60;99.90;;;;;;4951716;29;20024;-78
2023/06/19 02:41:46;;;;;;;22.83;15.60;;;20.60;99.90;;;;;;4935864;29;20436;-78
2023/06/19 02:44:12;;;;;;;22.13;14.02;;;20.60;99.90;;;;;;4952806;29;20051;-78
2023/06/19 02:46:38;;;;;;;20.80;14.48;;;20.60;99.90;;;;;;4947678;28;20046;-78
2023/06/19 02:49:04;;;;;;;21.10;14.52;;;20.60;99.90;;;;;;4965783;28;20032;-78
2023/06/19 02:51:29;;;;;;;23.05;16.38;;;20.50;99.90;;;;;;4953661;29;20100;-77
2023/06/19 02:53:55;;;;;;;22.83;14.88;;;20.50;99.90;;;;;;4946582;29;20030;-78
2023/06/19 02:56:21;;;;;;;24.17;14.88;;;20.60;99.90;;;;;;4953372;29;20099;-77
2023/06/19 02:58:47;;;;;;;22.73;15.52;;;20.60;99.90;;;;;;4952719;28;20032;-77
2023/06/19 03:01:13;;;;;;;23.38;16.92;;;20.60;99.90;;;;;;4949344;29;20032;-78
2023/06/19 03:03:40;;;;;;;23.83;16.92;;;20.60;99.90;;;;;;4941671;29;20120;-78
2023/06/19 03:06:07;;;;;;;21.15;15.00;;;20.60;99.90;;;;;;4947680;29;20066;-78
2023/06/19 03:08:36;;;;;;;22.48;16.20;;;20.60;99.90;;;;;;4938783;29;20087;-79
2023/06/19 03:11:05;;;;;;;22.25;15.18;;;20.60;99.90;;;;;;4950120;29;20216;-77
2023/06/19 03:13:44;;;;;;;22.33;15.10;;;20.60;99.90;;;;;;4951552;29;20024;-77
2023/06/19 03:16:10;;;;;;;24.25;16.45;;;20.60;99.90;;;;;;4953288;29;20121;-77
2023/06/19 03:18:35;;;;;;;27.70;17.25;;;20.60;99.90;;;;;;4939907;28;20111;-78
2023/06/19 03:21:03;;;;;;;29.27;21.10;;;20.60;99.90;;;;;;4953762;28;20031;-77
2023/06/19 03:23:29;;;;;;;29.67;20.95;;;20.70;99.90;;;;;;4943666;29;20027;-77
2023/06/19 03:25:54;;;;;;;35.05;25.17;;;20.70;99.90;;;;;;4947632;29;20482;-78
2023/06/19 03:28:20;;;;;;;36.20;26.20;;;20.70;99.90;;;;;;4950492;28;20102;-76
2023/06/19 03:30:46;;;;;;;35.22;26.38;;;20.60;99.90;;;;;;4950670;29;20031;-77
2023/06/19 03:33:11;;;;;;;35.60;27.90;;;20.60;99.90;;;;;;4936136;29;20028;-76
2023/06/19 03:35:37;;;;;;;39.40;28.65;;;20.60;99.90;;;;;;4939304;29;20547;-75
2023/06/19 03:38:02;;;;;;;37.17;28.80;;;20.60;99.90;;;;;;4956933;29;20149;-75
2023/06/19 03:40:28;;;;;;;35.83;26.73;;;20.50;99.90;;;;;;4953203;29;20050;-76
2023/06/19 03:42:54;;;;;;;39.33;28.85;;;20.50;99.90;;;;;;4954417;29;20792;-77
2023/06/19 03:45:20;;;;;;;37.38;27.98;;;20.30;99.90;;;;;;4942339;29;20023;-76
2023/06/19 03:47:45;;;;;;;40.85;30.88;;;20.20;99.90;;;;;;4962645;28;20031;-77
2023/06/19 03:50:11;;;;;;;43.53;33.20;;;20.10;99.90;;;;;;4962879;28;20110;-76
2023/06/19 03:52:36;;;;;;;45.22;34.10;;;20.00;99.90;;;;;;4953201;29;20027;-77
2023/06/19 03:55:03;;;;;;;43.75;32.25;;;20.00;99.90;;;;;;4952923;29;20027;-77
2023/06/19 03:57:29;;;;;;;52.30;35.45;;;19.90;99.90;;;;;;4943283;29;20050;-77
2023/06/19 03:59:56;;;;;;;66.50;43.25;;;19.80;99.90;;;;;;4946570;29;20066;-77
2023/06/19 04:02:22;;;;;;;60.63;37.33;;;19.80;99.90;;;;;;4949894;28;20086;-77
2023/06/19 04:04:47;;;;;;;68.25;40.17;;;19.70;99.90;;;;;;4955545;29;20028;-76
2023/06/19 04:07:13;;;;;;;58.50;33.45;;;19.60;99.90;;;;;;4940955;29;20123;-76
2023/06/19 04:09:39;;;;;;;56.42;37.25;;;19.50;99.90;;;;;;4948974;29;20483;-77
2023/06/19 04:12:05;;;;;;;61.55;37.15;;;19.40;99.90;;;;;;4947922;29;20042;-77
2023/06/19 04:14:30;;;;;;;56.20;34.75;;;19.40;99.90;;;;;;4942130;29;20125;-77
2023/06/19 04:16:56;;;;;;;56.45;34.17;;;19.40;99.90;;;;;;4956292;29;20532;-77
2023/06/19 04:19:22;;;;;;;58.70;33.83;;;19.30;99.90;;;;;;4951104;29;20028;-76
2023/06/19 04:21:47;;;;;;;62.45;34.25;;;19.30;99.90;;;;;;4945431;28;20027;-76
2023/06/19 04:24:13;;;;;;;59.22;31.42;;;19.30;99.90;;;;;;4944080;29;20035;-76
2023/06/19 04:26:38;;;;;;;57.55;30.90;;;19.20;99.90;;;;;;4952451;29;20039;-76
2023/06/19 04:29:06;;;;;;;64.63;34.15;;;19.20;99.90;;;;;;4940235;29;20110;-76
2023/06/19 04:31:32;;;;;;;56.00;32.80;;;19.10;99.90;;;;;;4949351;29;20016;-76
2023/06/19 04:33:57;;;;;;;53.90;28.38;;;19.10;99.90;;;;;;4946598;29;20380;-76
2023/06/19 04:36:23;;;;;;;50.45;27.83;;;19.00;99.90;;;;;;4942520;29;20032;-76
2023/06/19 04:38:51;;;;;;;45.70;24.25;;;19.00;99.90;;;;;;4952644;29;20055;-77
2023/06/19 04:41:17;;;;;;;40.20;20.73;;;19.00;99.90;;;;;;4938299;29;20030;-76
2023/06/19 04:43:42;;;;;;;33.25;19.65;;;19.00;99.90;;;;;;4944545;29;20054;-77
2023/06/19 04:46:08;;;;;;;35.42;19.55;;;19.00;99.90;;;;;;4945742;29;20040;-76
2023/06/19 04:48:36;;;;;;;33.33;17.23;;;19.00;99.90;;;;;;4952818;29;20071;-76
2023/06/19 04:51:02;;;;;;;31.00;18.20;;;19.00;99.90;;;;;;4955730;29;20027;-77
2023/06/19 04:53:28;;;;;;;35.40;17.80;;;19.00;99.90;;;;;;4958019;28;20467;-75
2023/06/19 04:55:55;;;;;;;27.50;14.68;;;19.00;99.90;;;;;;4964629;28;20042;-77
2023/06/19 04:58:21;;;;;;;29.00;16.52;;;19.00;99.90;;;;;;4949344;29;20031;-76
2023/06/19 05:00:52;;;;;;;25.83;13.65;;;18.90;99.90;;;;;;4939229;29;20120;-77
2023/06/19 05:03:18;;;;;;;26.10;14.88;;;18.90;99.90;;;;;;4950801;29;20016;-77
2023/06/19 05:05:44;;;;;;;23.13;12.43;;;18.90;99.90;;;;;;4944230;29;20039;-77
2023/06/19 05:08:09;;;;;;;23.50;13.55;;;18.90;99.90;;;;;;4943770;29;20392;-77
2023/06/19 05:10:35;;;;;;;24.33;12.05;;;19.00;99.90;;;;;;4950727;29;20038;-77
2023/06/19 05:13:01;;;;;;;23.55;12.52;;;19.00;99.90;;;;;;4951993;29;20047;-77
2023/06/19 05:15:27;;;;;;;19.65;11.85;;;19.00;99.90;;;;;;4943483;29;20034;-77
2023/06/19 05:17:53;;;;;;;21.02;10.48;;;19.10;99.90;;;;;;4955426;29;20031;-77
2023/06/19 05:20:20;;;;;;;25.17;12.55;;;19.00;99.90;;;;;;4955558;29;20066;-77
2023/06/19 05:22:45;;;;;;;19.02;11.30;;;19.00;99.90;;;;;;4939599;29;20043;-77
2023/06/19 05:25:11;;;;;;;26.05;12.75;;;19.00;99.90;;;;;;4951026;29;20036;-77
2023/06/19 05:27:36;;;;;;;27.45;11.93;;;19.00;99.90;;;;;;4943279;29;20094;-77
2023/06/19 05:30:03;;;;;;;25.98;13.23;;;19.00;99.90;;;;;;4944390;29;20031;-77
2023/06/19 05:32:29;;;;;;;22.80;12.15;;;19.10;99.90;;;;;;4947772;28;20019;-76
2023/06/19 05:34:55;;;;;;;31.63;13.70;;;19.10;99.90;;;;;;4943358;29;20034;-77
2023/06/19 05:37:22;;;;;;;23.00;11.57;;;19.00;99.90;;;;;;4954636;29;20694;-78
2023/06/19 05:39:48;;;;;;;23.90;12.77;;;19.00;99.90;;;;;;4946015;29;20043;-78
2023/06/19 05:42:13;;;;;;;26.42;13.23;;;19.00;99.90;;;;;;4946999;29;20030;-77
2023/06/19 05:44:40;;;;;;;24.27;13.90;;;18.90;99.90;;;;;;4939112;29;20036;-78
2023/06/19 05:47:05;;;;;;;24.75;12.98;;;18.90;99.90;;;;;;4951267;29;20110;-78
2023/06/19 05:49:31;;;;;;;25.05;13.82;;;18.90;99.90;;;;;;4954484;29;20489;-78
2023/06/19 05:51:58;;;;;;;28.77;14.98;;;18.90;99.90;;;;;;4944120;29;20074;-77
2023/06/19 05:54:25;;;;;;;28.00;15.00;;;18.80;99.90;;;;;;4948868;29;20109;-77
2023/06/19 05:56:50;;;;;;;27.23;14.98;;;18.80;99.90;;;;;;4954281;29;20090;-78
2023/06/19 05:59:16;;;;;;;25.20;14.68;;;18.90;99.90;;;;;;4949717;29;20036;-77
2023/06/19 06:01:41;;;;;;;26.98;15.00;;;18.90;99.90;;;;;;4942931;29;20487;-77
2023/06/19 06:04:07;;;;;;;28.00;15.85;;;18.90;99.90;;;;;;4943385;29;20035;-77
2023/06/19 06:06:33;;;;;;;28.65;16.05;;;18.80;99.90;;;;;;4937137;29;20143;-76
2023/06/19 06:08:58;;;;;;;33.03;16.05;;;18.90;99.90;;;;;;4938935;29;20042;-76
2023/06/19 06:11:24;;;;;;;33.38;17.65;;;18.90;99.90;;;;;;4954416;29;20106;-75
2023/06/19 06:13:49;;;;;;;32.00;16.20;;;18.80;99.90;;;;;;4953788;29;20042;-75
2023/06/19 06:16:15;;;;;;;26.38;14.65;;;18.80;99.90;;;;;;4954338;29;20514;-75
2023/06/19 06:18:41;;;;;;;29.88;17.58;;;18.80;99.90;;;;;;4954446;29;20075;-76
2023/06/19 06:21:06;;;;;;;31.33;18.23;;;18.80;99.90;;;;;;4954567;29;20041;-76
2023/06/19 06:23:32;;;;;;;33.05;18.73;;;18.80;99.90;;;;;;4947826;29;20055;-77
2023/06/19 06:26:02;;;;;;;34.63;19.10;;;18.70;99.90;;;;;;4945010;29;20036;-77
2023/06/19 06:28:27;;;;;;;31.13;17.23;;;18.70;99.90;;;;;;4940242;29;20036;-76
2023/06/19 06:30:53;;;;;;;30.50;18.35;;;18.80;99.90;;;;;;4934758;29;20443;-76
2023/06/19 06:33:19;;;;;;;26.77;17.75;;;18.80;99.90;;;;;;4939993;29;20023;-76
2023/06/19 06:35:44;;;;;;;29.30;17.20;;;18.90;99.90;;;;;;4946199;29;20476;-77
2023/06/19 06:38:10;;;;;;;27.30;17.20;;;18.90;99.90;;;;;;4929229;29;20392;-76
2023/06/19 06:40:36;;;;;;;29.13;18.02;;;19.00;99.90;;;;;;4949768;29;20071;-76
2023/06/19 06:43:02;;;;;;;27.42;16.23;;;19.00;99.90;;;;;;4951167;29;20695;-76
2023/06/19 06:45:27;;;;;;;29.40;17.13;;;19.00;99.90;;;;;;4940918;29;20098;-76
2023/06/19 06:47:53;;;;;;;24.42;15.38;;;18.90;99.90;;;;;;4951325;29;20511;-76
2023/06/19 06:50:18;;;;;;;25.80;15.88;;;19.00;99.90;;;;;;4954346;29;20027;-77
2023/06/19 06:52:44;;;;;;;25.98;15.30;;;19.00;99.90;;;;;;4938736;29;20028;-76
2023/06/19 06:55:09;;;;;;;27.67;15.20;;;19.00;99.90;;;;;;4955751;29;20033;-77
2023/06/19 06:57:35;;;;;;;26.25;15.35;;;19.10;99.90;;;;;;4953724;29;20365;-76
2023/06/19 07:00:03;;;;;;;28.48;15.32;;;19.10;99.90;;;;;;4957722;29;20024;-76
2023/06/19 07:02:29;;;;;;;25.35;14.60;;;19.10;99.90;;;;;;4943703;29;20028;-78
2023/06/19 07:04:55;;;;;;;24.15;14.80;;;19.20;99.90;;;;;;4952930;28;20078;-76
2023/06/19 07:07:20;;;;;;;22.73;14.32;;;19.10;99.90;;;;;;4942255;29;20126;-76
2023/06/19 07:09:46;;;;;;;23.95;15.18;;;19.10;99.90;;;;;;4936758;29;20464;-77
2023/06/19 07:12:12;;;;;;;27.17;14.43;;;19.20;99.90;;;;;;4942933;29;20452;-76
2023/06/19 07:14:38;;;;;;;24.63;14.23;;;19.30;99.90;;;;;;4956893;29;20031;-76
2023/06/19 07:17:06;;;;;;;24.55;14.45;;;19.30;99.90;;;;;;4954282;29;20023;-77
2023/06/19 07:19:32;;;;;;;24.90;14.00;;;19.40;99.90;;;;;;4944813;29;20016;-77
2023/06/19 07:21:58;;;;;;;23.88;13.73;;;19.40;99.90;;;;;;4946754;29;20392;-77
2023/06/19 07:24:24;;;;;;;24.75;14.95;;;19.30;99.90;;;;;;4951520;29;20090;-77
2023/06/19 07:26:50;;;;;;;23.35;13.10;;;19.40;99.90;;;;;;4941442;29;20379;-77
2023/06/19 07:29:15;;;;;;;24.85;13.73;;;19.50;99.90;;;;;;4948126;29;20036;-77
2023/06/19 07:31:42;;;;;;;25.85;14.52;;;19.60;99.90;;;;;;4945731;29;20031;-77
2023/06/19 07:34:08;;;;;;;23.00;14.50;;;19.80;99.90;;;;;;4956926;29;20042;-77
2023/06/19 07:36:34;;;;;;;29.02;16.13;;;19.90;99.90;;;;;;4942041;29;20106;-76
2023/06/19 07:38:59;;;;;;;24.55;14.65;;;20.00;99.90;;;;;;4937323;29;20139;-78
2023/06/19 07:41:25;;;;;;;23.65;14.90;;;19.90;99.90;;;;;;4943221;29;20028;-77
2023/06/19 07:43:50;;;;;;;28.95;14.68;;;19.70;99.90;;;;;;4947755;29;20536;-77
2023/06/19 07:46:16;;;;;;;27.95;14.23;;;19.60;99.90;;;;;;4943818;29;20515;-78
2023/06/19 07:48:42;;;;;;;26.13;13.10;;;19.70;99.90;;;;;;4953221;29;20023;-78
2023/06/19 07:51:08;;;;;;;27.05;14.32;;;19.70;99.90;;;;;;4923554;29;20028;-78
2023/06/19 07:53:33;;;;;;;25.17;15.57;;;19.60;99.90;;;;;;4950081;29;20036;-77
2023/06/19 07:55:59;;;;;;;27.65;15.75;;;19.60;99.90;;;;;;4944399;29;20402;-77
2023/06/19 07:58:24;;;;;;;21.27;12.52;;;19.60;99.90;;;;;;4950648;29;20363;-77
2023/06/19 08:00:50;;;;;;;27.23;13.65;;;19.70;99.90;;;;;;4956056;29;20047;-77
2023/06/19 08:03:16;;;;;;;20.50;10.98;;;19.80;99.90;;;;;;4951501;29;20037;-78
2023/06/19 08:05:41;;;;;;;20.88;12.60;;;19.80;99.90;;;;;;4939081;29;20380;-77
2023/06/19 08:08:07;;;;;;;24.20;13.45;;;19.90;99.90;;;;;;4936059;29;20464;-77
2023/06/19 08:10:32;;;;;;;20.45;12.50;;;20.00;99.90;;;;;;4952246;29;20102;-78
2023/06/19 08:12:58;;;;;;;21.30;12.13;;;20.10;99.90;;;;;;4940582;29;20449;-77
2023/06/19 08:15:24;;;;;;;24.92;12.93;;;20.20;99.90;;;;;;4951010;29;20405;-77
2023/06/19 08:17:49;;;;;;;21.20;11.50;;;20.20;99.90;;;;;;4946117;29;20019;-75
2023/06/19 08:20:15;;;;;;;24.67;15.10;;;20.30;99.90;;;;;;4943982;29;20106;-76
2023/06/19 08:22:41;;;;;;;24.83;12.98;;;20.20;99.90;;;;;;4940634;29;20119;-75
2023/06/19 08:25:07;;;;;;;23.80;12.82;;;20.30;99.90;;;;;;4955756;29;20109;-75
2023/06/19 08:27:33;;;;;;;20.70;12.15;;;20.40;99.90;;;;;;4952730;29;20035;-76
2023/06/19 08:29:58;;;;;;;23.00;13.57;;;20.50;99.90;;;;;;4935512;29;20468;-75
2023/06/19 08:32:24;;;;;;;23.52;12.88;;;20.60;99.90;;;;;;4949950;29;20523;-75
2023/06/19 08:34:51;;;;;;;23.60;13.23;;;20.70;99.90;;;;;;4939841;29;20030;-75
2023/06/19 08:37:18;;;;;;;23.88;12.77;;;20.70;99.90;;;;;;4951342;29;20095;-75
2023/06/19 08:39:43;;;;;;;21.35;13.10;;;20.70;99.90;;;;;;4944973;29;20082;-75
2023/06/19 08:42:09;;;;;;;22.38;13.32;;;20.70;99.90;;;;;;4944692;29;20043;-75
2023/06/19 08:44:36;;;;;;;23.73;12.73;;;20.70;99.90;;;;;;4955652;29;20090;-75
2023/06/19 08:47:05;;;;;;;24.50;13.32;;;20.60;99.90;;;;;;4955496;29;20042;-76
2023/06/19 08:49:33;;;;;;;26.10;13.68;;;20.60;99.90;;;;;;4942234;29;20046;-75
2023/06/19 08:51:59;;;;;;;27.63;13.80;;;20.70;99.90;;;;;;4955619;29;20153;-76
2023/06/19 08:54:25;;;;;;;22.75;13.80;;;20.70;99.90;;;;;;4954561;29;20476;-75
2023/06/19 08:56:53;;;;;;;23.90;13.65;;;20.80;99.90;;;;;;4936185;29;20412;-76
2023/06/19 08:59:20;;;;;;;23.20;13.55;;;20.90;99.90;;;;;;4954166;29;20027;-75
2023/06/19 09:01:51;;;;;;;23.83;13.73;;;21.10;99.90;;;;;;4954260;29;20038;-76
2023/06/19 09:04:19;;;;;;;21.73;12.93;;;21.20;99.90;;;;;;4954340;29;20070;-75
2023/06/19 09:06:53;;;;;;;23.75;12.77;;;21.40;99.90;;;;;;4936767;29;20436;-76
2023/06/19 09:09:21;;;;;;;21.88;12.88;;;21.50;99.90;;;;;;4953981;29;20035;-76
2023/06/19 09:12:04;;;;;;;23.25;12.63;;;21.70;99.90;;;;;;4955006;29;20495;-76
2023/06/19 09:14:46;;;;;;;21.80;12.13;;;21.90;99.90;;;;;;4954756;29;20025;-76
2023/06/19 09:17:20;;;;;;;20.60;10.88;;;22.00;99.90;;;;;;4939327;29;20043;-76
2023/06/19 09:19:49;;;;;;;21.13;12.57;;;22.20;99.90;;;;;;4955127;29;20035;-76
2023/06/19 09:22:18;;;;;;;21.48;11.07;;;22.20;99.90;;;;;;4954751;29;20059;-76
2023/06/19 09:24:50;;;;;;;19.25;11.52;;;22.20;99.90;;;;;;4949756;29;20094;-77
2023/06/19 09:27:18;;;;;;;18.90;10.40;;;22.40;99.90;;;;;;4937678;29;20023;-76
2023/06/19 09:29:52;;;;;;;18.50;10.60;;;22.70;99.90;;;;;;4955010;29;20042;-75
2023/06/19 09:32:28;;;;;;;17.23;10.98;;;22.90;99.90;;;;;;4954748;29;20486;-75
2023/06/19 09:35:00;;;;;;;17.83;10.88;;;23.00;99.90;;;;;;4954340;29;20572;-75
2023/06/19 09:37:30;;;;;;;21.58;11.30;;;23.10;99.90;;;;;;4951006;29;20522;-76
2023/06/19 09:40:12;;;;;;;18.08;10.25;;;23.50;99.90;;;;;;4954496;29;20039;-75
2023/06/19 09:42:41;;;;;;;;;;;24.40;99.90;;;;;;4954478;29;20122;-76
2023/06/19 09:45:08;;;;;;;19.20;9.93;;;24.60;99.90;;;;;;4938783;29;20343;-75
2023/06/19 09:47:42;;;;;;;16.40;8.75;;;25.10;99.90;;;;;;4950775;29;20384;-75
2023/06/19 09:50:08;;;;;;;16.85;9.02;;;25.60;99.40;;;;;;4954390;29;20039;-74
2023/06/19 09:52:34;;;;;;;17.15;8.70;;;25.90;98.10;;;;;;4939636;29;20470;-76
2023/06/19 09:55:03;;;;;;;17.08;8.93;;;25.60;98.40;;;;;;4951315;29;20035;-76
2023/06/19 09:57:29;;;;;;;17.52;9.30;;;25.30;98.40;;;;;;4940357;29;20038;-76
2023/06/19 09:59:56;;;;;;;15.35;8.45;;;24.90;99.20;;;;;;4946978;29;20134;-76
2023/06/19 10:02:23;;;;;;;16.88;9.93;;;24.60;99.50;;;;;;4950082;29;20590;-76
2023/06/19 10:04:55;;;;;;;17.13;9.30;;;24.40;99.60;;;;;;4953588;29;20042;-76
2023/06/19 10:07:22;;;;;;;;;;;24.40;99.90;;;;;;4940095;29;20118;-76
2023/06/19 10:10:06;;;;;;;17.17;9.40;;;24.60;99.50;;;;;;4945466;29;19978;-77
2023/06/19 10:12:42;;;;;;;18.35;9.32;;;24.80;99.20;;;;;;4949347;29;20059;-76
2023/06/19 10:15:18;;;;;;;13.98;8.02;;;25.20;98.50;;;;;;4938554;29;20090;-75
2023/06/19 10:17:58;;;;;;;13.32;7.53;;;25.50;98.40;;;;;;4954384;29;20061;-75
2023/06/19 10:20:38;;;;;;;14.85;7.50;;;26.20;96.80;;;;;;4941154;29;20070;-75
2023/06/19 10:23:05;;;;;;;15.95;8.63;;;27.00;96.20;;;;;;4950327;29;20028;-76
2023/06/19 10:25:41;;;;;;;12.35;7.00;;;27.30;95.30;;;;;;4939213;29;20031;-75
2023/06/19 10:28:23;;;;;;;17.08;7.45;;;27.20;94.70;;;;;;4952283;29;20050;-74
2023/06/19 10:31:08;;;;;;;15.68;7.55;;;27.50;94.70;;;;;;4951627;29;20062;-76
2023/06/19 10:33:42;;;;;;;12.55;7.03;;;27.50;93.90;;;;;;4948946;29;20035;-78
2023/06/19 10:36:19;;;;;;;8.70;5.18;;;27.70;93.50;;;;;;4940397;29;20146;-75
2023/06/19 10:38:47;;;;;;;16.23;7.25;;;27.70;93.80;;;;;;4944397;29;20023;-73
2023/06/19 10:41:24;;;;;;;15.48;7.97;;;27.20;94.20;;;;;;4952122;29;20023;-72
2023/06/19 10:44:12;;;;;;;16.08;7.18;;;27.10;94.60;;;;;;4953710;29;20039;-75
2023/06/19 10:46:38;;;;;;;12.40;6.18;;;27.30;94.60;;;;;;4953654;29;20062;-73
2023/06/19 10:49:07;;;;;;;11.85;6.28;;;28.00;93.20;;;;;;4949489;29;20027;-73
2023/06/19 10:51:36;;;;;;;14.48;7.60;;;28.60;92.50;;;;;;4941568;28;20028;-72
2023/06/19 10:54:02;;;;;;;13.07;7.38;;;28.80;92.40;;;;;;4953433;29;20460;-73
2023/06/19 10:56:28;;;;;;;15.35;6.47;;;29.20;91.90;;;;;;4945765;29;20073;-73
2023/06/19 10:59:11;;;;;;;10.63;6.65;;;29.60;91.10;;;;;;4951853;29;20090;-73
2023/06/19 11:01:39;;;;;;;13.15;7.18;;;29.70;91.30;;;;;;4953001;29;20066;-74
2023/06/19 11:04:08;;;;;;;13.85;7.05;;;30.30;90.90;;;;;;4942202;29;20456;-73
2023/06/19 11:06:35;;;;;;;10.77;5.97;;;31.10;90.30;;;;;;4948905;29;20043;-73
2023/06/19 11:09:01;;;;;;;13.63;6.90;;;32.00;87.00;;;;;;4948130;29;20059;-72
2023/06/19 11:11:55;;;;;;;12.90;6.68;;;32.50;86.50;;;;;;4951001;29;20058;-73
2023/06/19 11:14:21;;;;;;;12.25;6.22;;;33.60;84.70;;;;;;4940907;29;20094;-72
2023/06/19 11:16:47;;;;;;;9.82;5.88;;;34.00;83.20;;;;;;4937745;29;20254;-73
2023/06/19 11:19:21;;;;;;;10.75;5.72;;;33.90;82.80;;;;;;4949326;29;20066;-74
2023/06/19 11:21:51;;;;;;;13.73;6.10;;;34.40;81.80;;;;;;4943214;29;20039;-74
2023/06/19 11:24:17;;;;;;;13.23;7.18;;;34.20;81.20;;;;;;4933315;29;20440;-73
2023/06/19 11:26:51;;;;;;;14.65;7.10;;;34.20;81.00;;;;;;4950457;29;20085;-74
2023/06/19 11:29:18;;;;;;;13.35;6.45;;;34.10;80.60;;;;;;4939211;29;20035;-72
2023/06/19 11:31:44;;;;;;;10.93;6.15;;;34.40;80.10;;;;;;4947325;29;20094;-73
2023/06/19 11:34:10;;;;;;;12.65;5.63;;;35.00;78.90;;;;;;4942070;29;20032;-73
2023/06/19 11:36:41;;;;;;;12.98;6.63;;;35.50;77.90;;;;;;4949522;29;20035;-72
2023/06/19 11:39:15;;;;;;;12.13;5.88;;;35.80;77.20;;;;;;4939021;29;20315;-72
2023/06/19 11:41:43;;;;;;;11.32;5.65;;;35.80;76.60;;;;;;4949369;29;20058;-74
2023/06/19 11:44:11;;;;;;;9.75;5.70;;;35.50;77.00;;;;;;4953576;28;20493;-71
2023/06/19 11:46:37;;;;;;;10.13;5.57;;;35.90;76.10;;;;;;4966795;28;20034;-73
2023/06/19 11:49:13;;;;;;;9.50;5.40;;;36.40;76.00;;;;;;4954684;28;20039;-72
2023/06/19 11:51:40;;;;;;;7.75;5.18;;;35.80;75.50;;;;;;4954200;28;20089;-72
2023/06/19 11:54:08;;;;;;;9.30;4.63;;;35.70;75.00;;;;;;4960010;28;20031;-74
2023/06/19 11:56:34;;;;;;;12.13;4.97;;;35.60;74.80;;;;;;4962196;28;20035;-74
2023/06/19 11:59:00;;;;;;;9.57;4.80;;;35.00;75.70;;;;;;4953764;29;20031;-73
2023/06/19 12:01:26;;;;;;;9.40;4.97;;;34.80;76.10;;;;;;4956223;29;20031;-75
2023/06/19 12:03:52;;;;;;;10.90;5.07;;;34.60;76.10;;;;;;4956454;29;20076;-74
2023/06/19 12:06:18;;;;;;;10.80;5.13;;;34.40;76.00;;;;;;4956409;29;20039;-73
2023/06/19 12:08:44;;;;;;;10.23;5.55;;;34.40;76.00;;;;;;4934695;28;20024;-74
2023/06/19 12:11:10;;;;;;;7.90;4.43;;;34.50;76.00;;;;;;4954715;29;20057;-73
2023/06/19 12:13:36;;;;;;;7.43;4.50;;;34.50;75.40;;;;;;4954374;29;20147;-71
2023/06/19 12:16:03;;;;;;;11.30;4.78;;;35.10;74.80;;;;;;4954464;29;20039;-73
2023/06/19 12:18:29;;;;;;;8.35;4.30;;;35.60;73.70;;;;;;4954611;29;20110;-74
2023/06/19 12:20:54;;;;;;;8.27;4.00;;;36.00;73.20;;;;;;4937181;29;20167;-73
2023/06/19 12:23:20;;;;;;;7.53;4.60;;;36.40;71.80;;;;;;4954308;29;20055;-74
2023/06/19 12:25:45;;;;;;;9.90;4.70;;;36.70;71.80;;;;;;4954852;29;20109;-75
2023/06/19 12:28:16;;;;;;;11.02;5.28;;;36.80;71.40;;;;;;4954838;29;20031;-74
2023/06/19 12:30:42;;;;;;;11.65;5.05;;;37.00;71.00;;;;;;4956343;29;20039;-73
2023/06/19 12:33:07;;;;;;;10.90;5.07;;;36.90;70.70;;;;;;4954328;28;20039;-74
2023/06/19 12:35:33;;;;;;;9.82;4.68;;;36.50;71.30;;;;;;4955346;29;20027;-75